createdAt,value
2023-03-04T00:00:46.343Z,100663.86
2023-03-04T00:04:20.819Z,100669.59
2023-03-04T00:07:48.187Z,100661.73
2023-03-04T00:11:15.363Z,100663.15
2023-03-04T00:14:42.664Z,100668.66
2023-03-04T00:18:10.072Z,100670.30
2023-03-04T00:21:37.236Z,100670.15
2023-03-04T00:25:04.529Z,100665.35
2023-03-04T00:28:31.665Z,100663.95
2023-03-04T00:31:58.908Z,100663.30
2023-03-04T00:35:26.582Z,100650.05
2023-03-04T00:38:54.356Z,100654.84
2023-03-04T00:42:21.578Z,100649.34
2023-03-04T00:45:48.877Z,100642.38
2023-03-04T00:49:16.148Z,100635.73
2023-03-04T00:52:43.477Z,100636.48
2023-03-04T00:56:11.121Z,100629.23
2023-03-04T00:59:38.239Z,100629.77
2023-03-04T01:03:05.473Z,100621.54
2023-03-04T01:06:32.857Z,100609.23
2023-03-04T01:10:00.044Z,100603.29
2023-03-04T01:13:27.324Z,100599.96
2023-03-04T01:16:54.694Z,100591.29
2023-03-04T01:20:22.635Z,100582.32
2023-03-04T01:23:49.787Z,100571.48
2023-03-04T01:27:16.972Z,100566.48
2023-03-04T01:30:44.299Z,100560.58
2023-03-04T01:34:11.442Z,100549.08
2023-03-04T01:37:38.581Z,100544.64
2023-03-04T01:41:07.700Z,100533.92
2023-03-04T01:44:35.033Z,100525.48
2023-03-04T01:48:02.229Z,100519.35
2023-03-04T01:51:29.398Z,100510.58
2023-03-04T01:54:56.824Z,100505.20
2023-03-04T01:58:32.314Z,100497.79
2023-03-04T02:02:01.412Z,100492.06
2023-03-04T02:05:31.349Z,100497.35
2023-03-04T02:08:58.789Z,100491.46
2023-03-04T02:12:26.022Z,100481.11
2023-03-04T02:15:53.313Z,100479.25
2023-03-04T02:19:34.043Z,100481.20
2023-03-04T02:23:08.790Z,100476.58
2023-03-04T02:26:37.240Z,100466.31
2023-03-04T02:30:04.822Z,100456.70
2023-03-04T02:33:33.212Z,100452.14
2023-03-04T02:37:00.945Z,100447.91
2023-03-04T02:40:32.619Z,100444.05
2023-03-04T02:43:59.986Z,100442.77
2023-03-04T02:47:27.829Z,100443.65
2023-03-04T02:50:56.530Z,100444.82
2023-03-04T02:54:25.331Z,100444.60
2023-03-04T02:57:52.387Z,100444.91
2023-03-04T03:01:19.541Z,100442.63
2023-03-04T03:04:46.972Z,100437.17
2023-03-04T03:08:16.076Z,100434.81
2023-03-04T03:11:43.517Z,100428.71
2023-03-04T03:15:12.928Z,100432.34
2023-03-04T03:18:41.507Z,100438.79
2023-03-04T03:22:09.261Z,100434.51
2023-03-04T03:25:36.455Z,100434.17
2023-03-04T03:29:03.554Z,100437.75
2023-03-04T03:32:30.828Z,100438.39
2023-03-04T03:35:58.406Z,100435.48
2023-03-04T03:39:25.715Z,100435.68
2023-03-04T03:42:52.861Z,100432.17
2023-03-04T03:46:19.971Z,100431.70
2023-03-04T03:49:47.284Z,100430.48
2023-03-04T03:53:14.441Z,100426.02
2023-03-04T03:56:41.733Z,100429.48
2023-03-04T04:00:11.201Z,100426.23
2023-03-04T04:03:41.172Z,100430.03
2023-03-04T04:07:08.326Z,100431.85
2023-03-04T04:10:35.401Z,100438.01
2023-03-04T04:14:02.600Z,100433.83
2023-03-04T04:17:29.874Z,100435.50
2023-03-04T04:20:57.079Z,100429.73
2023-03-04T04:24:24.862Z,100429.02
2023-03-04T04:27:51.967Z,100427.13
2023-03-04T04:31:19.188Z,100427.66
2023-03-04T04:34:46.432Z,100427.64
2023-03-04T04:38:13.677Z,100421.25
2023-03-04T04:41:43.122Z,100421.76
2023-03-04T04:45:12.718Z,100425.70
2023-03-04T04:48:38.176Z,100418.15
2023-03-04T04:52:05.494Z,100413.12
2023-03-04T04:55:33.359Z,100413.34
2023-03-04T04:59:02.794Z,100406.50
2023-03-04T05:02:29.987Z,100404.30
2023-03-04T05:05:57.202Z,100396.74
2023-03-04T05:09:24.572Z,100389.98
2023-03-04T05:12:51.731Z,100386.39
2023-03-04T05:16:19.533Z,100380.98
2023-03-04T05:19:46.868Z,100377.70
2023-03-04T05:23:14.012Z,100370.84
2023-03-04T05:26:41.111Z,100369.78
2023-03-04T05:30:10.488Z,100368.55
2023-03-04T05:33:37.867Z,100360.02
2023-03-04T05:37:05.140Z,100361.30
2023-03-04T05:40:32.288Z,100360.01
2023-03-04T05:43:59.649Z,100366.52
2023-03-04T05:47:26.745Z,100371.17
2023-03-04T05:50:58.127Z,100374.95
2023-03-04T05:54:25.393Z,100372.55
2023-03-04T05:57:52.686Z,100370.48
2023-03-04T06:01:20.294Z,100370.68
2023-03-04T06:04:47.488Z,100369.21
2023-03-04T06:08:15.288Z,100369.66
2023-03-04T06:11:42.950Z,100368.85
2023-03-04T06:15:11.630Z,100361.67
2023-03-04T06:18:39.335Z,100359.19
2023-03-04T06:22:06.467Z,100359.88
2023-03-04T06:25:34.638Z,100359.80
2023-03-04T06:29:01.747Z,100356.91
2023-03-04T06:32:29.095Z,100362.73
2023-03-04T06:35:58.610Z,100362.78
2023-03-04T06:39:25.891Z,100359.86
2023-03-04T06:42:52.966Z,100359.86
2023-03-04T06:46:20.046Z,100354.88
2023-03-04T06:49:47.293Z,100356.99
2023-03-04T06:53:14.348Z,100362.61
2023-03-04T06:56:41.613Z,100364.31
2023-03-04T07:00:10.747Z,100361.25
2023-03-04T07:03:38.167Z,100359.04
2023-03-04T07:07:05.283Z,100357.81
2023-03-04T07:10:32.380Z,100353.02
2023-03-04T07:13:59.464Z,100349.86
2023-03-04T07:17:26.914Z,100347.50
2023-03-04T07:20:56.423Z,100348.94
2023-03-04T07:24:23.986Z,100348.06
2023-03-04T07:27:51.022Z,100352.33
2023-03-04T07:31:24.804Z,100350.09
2023-03-04T07:34:52.334Z,100350.55
2023-03-04T07:38:19.325Z,100346.88
2023-03-04T07:41:46.550Z,100350.59
2023-03-04T07:45:14.771Z,100350.25
2023-03-04T07:48:42.144Z,100350.22
2023-03-04T07:52:09.651Z,100343.12
2023-03-04T07:55:36.716Z,100341.54
2023-03-04T07:59:04.375Z,100340.18
2023-03-04T08:02:31.480Z,100338.65
2023-03-04T08:05:58.534Z,100337.65
2023-03-04T08:09:26.218Z,100335.49
2023-03-04T08:12:53.331Z,100331.58
2023-03-04T08:16:23.056Z,100329.42
2023-03-04T08:19:48.614Z,100329.00
2023-03-04T08:23:15.613Z,100329.14
2023-03-04T08:26:45.340Z,100326.92
2023-03-04T08:30:12.192Z,100329.43
2023-03-04T08:33:39.360Z,100331.33
2023-03-04T08:37:07.249Z,100328.86
2023-03-04T08:40:34.673Z,100333.44
2023-03-04T08:44:03.053Z,100334.34
2023-03-04T08:47:30.117Z,100331.74
2023-03-04T08:50:57.622Z,100326.02
2023-03-04T08:54:24.824Z,100323.40
2023-03-04T08:57:51.985Z,100318.75
2023-03-04T09:01:19.348Z,100318.73
2023-03-04T09:04:46.880Z,100316.22
2023-03-04T09:08:14.352Z,100316.36
2023-03-04T09:11:41.389Z,100316.78
2023-03-04T09:15:11.980Z,100320.87
2023-03-04T09:18:40.143Z,100322.02
2023-03-04T09:22:07.227Z,100315.90
2023-03-04T09:25:34.560Z,100317.28
2023-03-04T09:29:03.161Z,100313.00
2023-03-04T09:32:30.484Z,100309.43
2023-03-04T09:35:59.102Z,100313.68
2023-03-04T09:39:26.574Z,100308.45
2023-03-04T09:42:58.189Z,100307.08
2023-03-04T09:46:35.188Z,100304.09
2023-03-04T09:50:04.835Z,100300.11
2023-03-04T09:53:41.473Z,100301.72
2023-03-04T09:57:28.059Z,100301.24
2023-03-04T10:01:05.138Z,100297.60
2023-03-04T10:04:42.190Z,100297.92
2023-03-04T10:08:25.525Z,100291.10
2023-03-04T10:12:01.687Z,100292.79
2023-03-04T10:15:36.951Z,100286.35
2023-03-04T10:19:17.321Z,100283.13
2023-03-04T10:22:47.530Z,100282.23
2023-03-04T10:26:16.689Z,100282.13
2023-03-04T10:29:43.950Z,100269.98
2023-03-04T10:33:16.781Z,100269.27
2023-03-04T10:36:54.694Z,100263.14
2023-03-04T10:40:25.472Z,100261.23
2023-03-04T10:44:05.061Z,100261.19
2023-03-04T10:47:35.308Z,100260.20
2023-03-04T10:51:20.152Z,100256.05
2023-03-04T10:54:53.662Z,100253.54
2023-03-04T10:58:22.237Z,100245.28
2023-03-04T11:01:51.279Z,100238.13
2023-03-04T11:05:22.741Z,100234.83
2023-03-04T11:08:56.871Z,100236.06
2023-03-04T11:12:33.992Z,100233.23
2023-03-04T11:16:03.729Z,100232.84
2023-03-04T11:19:39.610Z,100237.55
2023-03-04T11:23:11.606Z,100236.77
2023-03-04T11:26:44.290Z,100234.09
2023-03-04T11:30:37.820Z,100232.73
2023-03-04T11:34:13.721Z,100237.45
2023-03-04T11:37:45.323Z,100230.45
2023-03-04T11:41:19.254Z,100236.64
2023-03-04T11:44:46.528Z,100241.89
2023-03-04T11:48:18.192Z,100247.63
2023-03-04T11:51:52.417Z,100250.93
2023-03-04T11:55:39.155Z,100241.02
2023-03-04T11:59:23.481Z,100239.30
2023-03-04T12:03:04.128Z,100231.63
2023-03-04T12:06:44.097Z,100228.88
2023-03-04T12:10:23.723Z,100224.73
2023-03-04T12:14:09.465Z,100216.87
2023-03-04T12:17:53.398Z,100214.83
2023-03-04T12:21:42.585Z,100215.55
2023-03-04T12:25:25.318Z,100206.61
2023-03-04T12:28:58.587Z,100208.46
2023-03-04T12:32:34.530Z,100213.69
2023-03-04T12:36:13.581Z,100209.76
2023-03-04T12:39:47.027Z,100211.09
2023-03-04T12:43:33.935Z,100209.84
2023-03-04T12:47:14.948Z,100208.34
2023-03-04T12:50:52.933Z,100218.54
2023-03-04T12:54:32.156Z,100209.70
2023-03-04T12:58:00.172Z,100217.18
2023-03-04T13:01:32.818Z,100226.27
2023-03-04T13:05:15.368Z,100235.05
2023-03-04T13:08:54.919Z,100235.23
2023-03-04T13:12:23.668Z,100239.16
2023-03-04T13:16:05.764Z,100245.08
2023-03-04T13:19:52.553Z,100257.84
2023-03-04T13:23:31.952Z,100271.02
2023-03-04T13:26:59.255Z,100280.13
2023-03-04T13:31:06.908Z,100281.75
2023-03-04T13:34:53.996Z,100289.23
2023-03-04T13:38:34.685Z,100290.36
2023-03-04T13:42:02.971Z,100295.09
2023-03-04T13:45:40.555Z,100296.50
2023-03-04T13:49:10.081Z,100299.05
2023-03-04T13:52:44.724Z,100301.34
2023-03-04T13:56:30.048Z,100305.96
2023-03-04T13:59:58.654Z,100306.48
2023-03-04T14:03:29.125Z,100305.97
2023-03-04T14:06:58.875Z,100302.20
2023-03-04T14:10:26.896Z,100309.40
2023-03-04T14:13:55.024Z,100304.15
2023-03-04T14:17:25.419Z,100298.63
2023-03-04T14:20:58.983Z,100290.66
2023-03-04T14:24:26.666Z,100292.70
2023-03-04T14:28:05.823Z,100297.19
2023-03-04T14:31:37.325Z,100298.05
2023-03-04T14:35:08.455Z,100301.06
2023-03-04T14:38:38.984Z,100300.54
2023-03-04T14:42:12.108Z,100305.03
2023-03-04T14:45:40.681Z,100309.55
2023-03-04T14:49:07.879Z,100310.10
2023-03-04T14:52:38.644Z,100309.86
2023-03-04T14:56:07.904Z,100304.94
2023-03-04T14:59:37.024Z,100308.88
2023-03-04T15:03:09.579Z,100312.75
2023-03-04T15:06:39.157Z,100313.93
2023-03-04T15:10:09.438Z,100313.95
2023-03-04T15:13:45.198Z,100312.33
2023-03-04T15:17:26.960Z,100310.47
2023-03-04T15:21:03.061Z,100309.63
2023-03-04T15:24:30.194Z,100308.73
2023-03-04T15:27:58.044Z,100305.14
2023-03-04T15:31:27.026Z,100303.66
2023-03-04T15:34:54.277Z,100305.50
2023-03-04T15:38:22.611Z,100308.42
2023-03-04T15:41:50.712Z,100312.48
2023-03-04T15:45:24.529Z,100318.61
2023-03-04T15:48:51.656Z,100322.95
2023-03-04T15:52:21.346Z,100328.23
2023-03-04T15:55:50.442Z,100332.59
2023-03-04T15:59:19.465Z,100328.40
2023-03-04T16:02:47.483Z,100328.64
2023-03-04T16:06:18.713Z,100328.41
2023-03-04T16:09:46.322Z,100331.71
2023-03-04T16:13:18.106Z,100330.73
2023-03-04T16:16:46.947Z,100338.86
2023-03-04T16:20:17.192Z,100339.91
2023-03-04T16:23:46.885Z,100345.14
2023-03-04T16:27:14.164Z,100349.52
2023-03-04T16:30:41.669Z,100348.46
2023-03-04T16:34:09.020Z,100352.77
2023-03-04T16:37:36.301Z,100354.14
2023-03-04T16:41:03.502Z,100362.36
2023-03-04T16:44:30.760Z,100364.04
2023-03-04T16:47:57.883Z,100368.68
2023-03-04T16:51:26.096Z,100373.16
2023-03-04T16:54:53.573Z,100382.85
2023-03-04T16:58:20.746Z,100386.47
2023-03-04T17:01:48.579Z,100391.45
2023-03-04T17:05:21.169Z,100395.58
2023-03-04T17:08:48.743Z,100403.81
2023-03-04T17:12:15.935Z,100409.55
2023-03-04T17:15:45.392Z,100418.29
2023-03-04T17:19:10.965Z,100423.25
2023-03-04T17:22:38.413Z,100426.15
2023-03-04T17:26:06.218Z,100430.23
2023-03-04T17:29:33.445Z,100427.79
2023-03-04T17:33:01.162Z,100434.39
2023-03-04T17:36:28.455Z,100438.22
2023-03-04T17:39:55.706Z,100440.91
2023-03-04T17:43:23.073Z,100443.49
2023-03-04T17:46:51.975Z,100444.88
2023-03-04T17:50:22.805Z,100449.33
2023-03-04T17:53:49.942Z,100456.39
2023-03-04T17:57:17.151Z,100467.85
2023-03-04T18:00:44.560Z,100467.22
2023-03-04T18:04:12.154Z,100465.66
2023-03-04T18:07:39.370Z,100464.91
2023-03-04T18:11:07.026Z,100476.64
2023-03-04T18:14:34.179Z,100478.99
2023-03-04T18:18:01.616Z,100482.04
2023-03-04T18:21:30.489Z,100485.04
2023-03-04T18:24:57.645Z,100487.42
2023-03-04T18:28:26.104Z,100495.40
2023-03-04T18:31:53.382Z,100500.86
2023-03-04T18:35:21.768Z,100500.81
2023-03-04T18:38:49.157Z,100501.46
2023-03-04T18:42:16.362Z,100506.36
2023-03-04T18:45:43.421Z,100503.31
2023-03-04T18:49:11.549Z,100507.59
2023-03-04T18:52:38.890Z,100505.88
2023-03-04T18:56:12.475Z,100506.17
2023-03-04T18:59:44.111Z,100510.92
2023-03-04T19:03:14.141Z,100514.27
2023-03-04T19:06:41.688Z,100511.94
2023-03-04T19:10:10.624Z,100512.78
2023-03-04T19:13:37.965Z,100517.08
2023-03-04T19:17:05.288Z,100512.10
2023-03-04T19:20:32.714Z,100513.91
2023-03-04T19:23:59.867Z,100517.36
2023-03-04T19:27:27.380Z,100515.52
2023-03-04T19:30:59.005Z,100518.64
2023-03-04T19:34:26.432Z,100519.69
2023-03-04T19:37:53.589Z,100524.80
2023-03-04T19:41:20.955Z,100524.25
2023-03-04T19:44:48.602Z,100525.42
2023-03-04T19:48:15.979Z,100528.47
2023-03-04T19:51:43.032Z,100534.05
2023-03-04T19:55:12.947Z,100535.36
2023-03-04T19:58:40.120Z,100535.20
2023-03-04T20:02:07.271Z,100537.30
2023-03-04T20:05:34.859Z,100540.88
2023-03-04T20:09:02.829Z,100542.67
2023-03-04T20:12:31.417Z,100543.26
2023-03-04T20:15:58.507Z,100541.04
2023-03-04T20:19:26.087Z,100538.45
2023-03-04T20:22:53.295Z,100542.81
2023-03-04T20:26:20.633Z,100541.25
2023-03-04T20:29:51.093Z,100542.23
2023-03-04T20:33:19.178Z,100540.54
2023-03-04T20:36:46.268Z,100540.55
2023-03-04T20:40:16.197Z,100539.97
2023-03-04T20:43:43.603Z,100538.69
2023-03-04T20:47:11.379Z,100542.45
2023-03-04T20:50:39.017Z,100536.53
2023-03-04T20:54:07.320Z,100541.23
2023-03-04T20:57:34.487Z,100537.90
2023-03-04T21:01:01.896Z,100536.73
2023-03-04T21:04:31.361Z,100533.70
2023-03-04T21:08:01.387Z,100530.42
2023-03-04T21:11:28.682Z,100527.10
2023-03-04T21:14:55.894Z,100524.58
2023-03-04T21:18:23.166Z,100529.45
2023-03-04T21:21:52.418Z,100529.29
2023-03-04T21:25:23.225Z,100527.05
2023-03-04T21:28:51.080Z,100525.35
2023-03-04T21:32:25.230Z,100521.34
2023-03-04T21:35:52.722Z,100523.14
2023-03-04T21:39:23.294Z,100522.06
2023-03-04T21:42:50.643Z,100522.35
2023-03-04T21:46:19.160Z,100522.08
2023-03-04T21:49:46.320Z,100521.86
2023-03-04T21:53:13.474Z,100517.40
2023-03-04T21:56:41.347Z,100513.10
2023-03-04T22:00:10.634Z,100511.78
2023-03-04T22:03:41.028Z,100508.86
2023-03-04T22:07:08.286Z,100507.33
2023-03-04T22:10:37.696Z,100501.80
2023-03-04T22:14:05.855Z,100502.44
2023-03-04T22:17:34.617Z,100498.00
2023-03-04T22:21:07.461Z,100495.68
2023-03-04T22:24:34.672Z,100495.42
2023-03-04T22:28:02.161Z,100490.05
2023-03-04T22:31:31.837Z,100486.25
2023-03-04T22:34:59.043Z,100491.10
2023-03-04T22:38:26.413Z,100488.03
2023-03-04T22:41:53.661Z,100485.13
2023-03-04T22:45:21.763Z,100481.73
2023-03-04T22:48:52.827Z,100479.77
2023-03-04T22:52:20.275Z,100479.27
2023-03-04T22:55:47.549Z,100478.15
2023-03-04T22:59:14.913Z,100474.27
2023-03-04T23:02:42.191Z,100471.71
2023-03-04T23:06:13.570Z,100475.98
2023-03-04T23:09:40.918Z,100469.17
2023-03-04T23:13:08.088Z,100458.90
2023-03-04T23:16:37.476Z,100455.70
2023-03-04T23:20:05.002Z,100457.19
2023-03-04T23:23:32.034Z,100456.68
2023-03-04T23:26:59.701Z,100450.30
2023-03-04T23:30:27.001Z,100450.84
2023-03-04T23:33:57.409Z,100449.01
2023-03-04T23:37:25.352Z,100446.48
2023-03-04T23:40:52.585Z,100442.24
2023-03-04T23:44:19.868Z,100448.27
2023-03-04T23:47:47.276Z,100444.09
2023-03-04T23:51:15.441Z,100438.23
2023-03-04T23:54:42.628Z,100431.26
2023-03-04T23:58:09.822Z,100421.16
